createdAt,value
2019-05-19T00:01:45.998Z,86.80
2019-05-19T00:04:50.766Z,86.90
2019-05-19T00:07:55.633Z,86.70
2019-05-19T00:11:00.533Z,86.70
2019-05-19T00:14:05.061Z,86.90
2019-05-19T00:17:09.524Z,86.90
2019-05-19T00:20:15.316Z,87.10
2019-05-19T00:23:19.842Z,87.20
2019-05-19T00:26:24.493Z,87.10
2019-05-19T00:29:29.003Z,87.20
2019-05-19T00:32:33.516Z,87.20
2019-05-19T00:35:38.092Z,86.90
2019-05-19T00:38:43.083Z,86.90
2019-05-19T00:41:47.632Z,86.70
2019-05-19T00:44:52.019Z,87.00
2019-05-19T00:47:56.687Z,87.00
2019-05-19T00:51:01.925Z,86.90
2019-05-19T00:54:06.454Z,87.20
2019-05-19T00:57:12.143Z,87.00
2019-05-19T01:00:17.296Z,87.10
2019-05-19T01:03:21.585Z,87.10
2019-05-19T01:06:27.395Z,87.10
2019-05-19T01:09:31.771Z,87.30
2019-05-19T01:12:36.307Z,87.50
2019-05-19T01:15:40.950Z,87.30
2019-05-19T01:18:46.107Z,87.30
2019-05-19T01:21:51.304Z,87.50
2019-05-19T01:24:56.275Z,87.20
2019-05-19T01:28:00.910Z,87.10
2019-05-19T01:31:05.284Z,86.90
2019-05-19T01:34:09.797Z,87.10
2019-05-19T01:37:15.003Z,87.10
2019-05-19T01:40:19.760Z,87.40
2019-05-19T01:43:24.921Z,87.20
2019-05-19T01:46:29.216Z,87.10
2019-05-19T01:49:33.495Z,87.00
2019-05-19T01:52:37.865Z,86.90
2019-05-19T01:55:42.166Z,87.00
2019-05-19T01:58:46.476Z,87.00
2019-05-19T02:01:50.853Z,87.10
2019-05-19T02:04:55.336Z,87.00
2019-05-19T02:07:59.659Z,87.10
2019-05-19T02:11:03.957Z,86.90
2019-05-19T02:14:08.232Z,87.40
2019-05-19T02:17:12.490Z,87.20
2019-05-19T02:20:31.653Z,87.40
2019-05-19T02:23:23.323Z,87.30
2019-05-19T02:26:27.674Z,87.30
2019-05-19T02:29:32.096Z,87.20
2019-05-19T02:32:36.450Z,87.70
2019-05-19T02:35:40.762Z,87.50
2019-05-19T02:38:45.149Z,87.50
2019-05-19T02:41:50.121Z,87.80
2019-05-19T02:44:56.386Z,87.70
2019-05-19T02:48:02.976Z,87.50
2019-05-19T02:51:08.420Z,88.00
2019-05-19T02:54:14.287Z,87.80
2019-05-19T02:57:18.920Z,87.70
2019-05-19T03:00:35.373Z,87.70
2019-05-19T03:03:42.345Z,87.70
2019-05-19T03:06:46.658Z,87.70
2019-05-19T03:09:51.566Z,87.70
2019-05-19T03:12:56.071Z,88.00
2019-05-19T03:16:00.428Z,88.10
2019-05-19T03:19:04.794Z,88.00
2019-05-19T03:22:09.157Z,88.40
2019-05-19T03:25:13.514Z,88.40
2019-05-19T03:28:19.860Z,88.30
2019-05-19T03:31:31.193Z,88.80
2019-05-19T03:34:35.574Z,88.70
2019-05-19T03:37:39.858Z,89.70
2019-05-19T03:40:44.209Z,89.00
2019-05-19T03:43:49.526Z,89.50
2019-05-19T03:46:53.808Z,89.60
2019-05-19T03:49:58.152Z,89.80
2019-05-19T03:53:03.075Z,89.30
2019-05-19T03:56:07.453Z,89.60
2019-05-19T03:59:11.745Z,89.90
2019-05-19T04:02:16.125Z,90.00
2019-05-19T04:05:20.395Z,90.00
2019-05-19T04:08:24.816Z,90.20
2019-05-19T04:11:29.123Z,90.50
2019-05-19T04:14:33.606Z,90.40
2019-05-19T04:17:37.938Z,90.50
2019-05-19T04:20:42.483Z,90.60
2019-05-19T04:23:46.837Z,90.80
2019-05-19T04:26:51.245Z,91.00
2019-05-19T04:29:55.534Z,91.00
2019-05-19T04:32:59.928Z,91.20
2019-05-19T04:36:04.221Z,91.20
2019-05-19T04:39:08.927Z,91.30
2019-05-19T04:42:13.286Z,91.40
2019-05-19T04:45:17.702Z,91.60
2019-05-19T04:48:22.002Z,91.60
2019-05-19T04:51:26.363Z,91.60
2019-05-19T04:54:30.733Z,91.60
2019-05-19T04:57:35.671Z,91.70
2019-05-19T05:00:40.027Z,91.90
2019-05-19T05:03:44.555Z,91.90
2019-05-19T05:06:48.906Z,91.60
2019-05-19T05:09:53.302Z,91.30
2019-05-19T05:12:57.763Z,91.10
2019-05-19T05:16:04.054Z,91.20
2019-05-19T05:19:08.180Z,91.10
2019-05-19T05:22:21.806Z,92.00
2019-05-19T05:25:19.583Z,91.70
2019-05-19T05:28:23.953Z,91.30
2019-05-19T05:31:28.258Z,90.90
2019-05-19T05:34:32.555Z,91.00
2019-05-19T05:37:37.012Z,91.90
2019-05-19T05:40:41.405Z,92.00
2019-05-19T05:43:45.774Z,92.30
2019-05-19T05:46:50.407Z,92.30
2019-05-19T05:49:54.765Z,92.70
2019-05-19T05:52:59.172Z,93.00
2019-05-19T05:56:03.553Z,92.90
2019-05-19T05:59:07.885Z,92.80
2019-05-19T06:02:12.252Z,92.80
2019-05-19T06:05:16.582Z,92.70
2019-05-19T06:08:20.950Z,92.60
2019-05-19T06:11:25.347Z,92.70
2019-05-19T06:14:29.679Z,92.90
2019-05-19T06:17:34.076Z,93.00
2019-05-19T06:20:38.469Z,93.00
2019-05-19T06:23:42.934Z,92.90
2019-05-19T06:26:47.339Z,92.90
2019-05-19T06:29:51.747Z,92.80
2019-05-19T06:32:57.550Z,92.50
2019-05-19T06:36:02.144Z,92.50
2019-05-19T06:39:07.619Z,92.70
2019-05-19T06:42:12.048Z,92.70
2019-05-19T06:45:18.775Z,92.70
2019-05-19T06:48:23.221Z,93.00
2019-05-19T06:51:27.612Z,92.70
2019-05-19T06:54:32.059Z,92.60
2019-05-19T06:57:36.497Z,92.60
2019-05-19T07:00:42.335Z,92.60
2019-05-19T07:03:46.647Z,92.50
2019-05-19T07:07:10.239Z,92.80
2019-05-19T07:10:14.841Z,92.70
2019-05-19T07:13:19.186Z,92.90
2019-05-19T07:16:23.508Z,92.60
2019-05-19T07:19:29.070Z,92.90
2019-05-19T07:22:37.498Z,92.70
2019-05-19T07:25:42.259Z,92.80
2019-05-19T07:28:47.292Z,92.90
2019-05-19T07:31:52.419Z,92.70
2019-05-19T07:34:57.300Z,92.70
2019-05-19T07:38:02.470Z,92.50
2019-05-19T07:41:08.151Z,92.30
2019-05-19T07:44:13.358Z,92.50
2019-05-19T07:47:20.726Z,92.40
2019-05-19T07:50:25.311Z,92.30
2019-05-19T07:53:42.261Z,92.20
2019-05-19T07:56:37.636Z,92.30
2019-05-19T07:59:43.229Z,92.30
2019-05-19T08:02:48.282Z,92.20
2019-05-19T08:05:52.980Z,92.20
2019-05-19T08:08:58.660Z,92.20
2019-05-19T08:12:06.776Z,92.20
2019-05-19T08:15:12.416Z,92.60
2019-05-19T08:18:17.879Z,92.30
2019-05-19T08:21:22.539Z,92.00
2019-05-19T08:24:26.816Z,92.10
2019-05-19T08:27:31.325Z,91.90
2019-05-19T08:30:35.914Z,92.10
2019-05-19T08:33:41.484Z,92.10
2019-05-19T08:36:46.012Z,91.80
2019-05-19T08:39:50.583Z,91.80
2019-05-19T08:42:54.951Z,92.00
2019-05-19T08:45:59.448Z,91.70
2019-05-19T08:49:03.881Z,91.50
2019-05-19T08:52:08.295Z,91.40
2019-05-19T08:55:12.931Z,91.20
2019-05-19T08:58:17.362Z,91.30
2019-05-19T09:01:25.013Z,91.20
2019-05-19T09:04:29.734Z,91.30
2019-05-19T09:07:34.286Z,91.00
2019-05-19T09:10:38.821Z,90.70
2019-05-19T09:13:43.307Z,90.70
2019-05-19T09:16:48.829Z,91.00
2019-05-19T09:19:55.691Z,90.30
2019-05-19T09:23:00.544Z,88.80
2019-05-19T09:26:05.446Z,87.20
2019-05-19T09:29:09.846Z,86.10
2019-05-19T09:32:14.210Z,86.90
2019-05-19T09:35:19.783Z,87.20
2019-05-19T09:38:24.185Z,85.40
2019-05-19T09:41:28.596Z,84.20
2019-05-19T09:44:32.958Z,84.90
2019-05-19T09:47:37.879Z,83.60
2019-05-19T09:50:42.327Z,84.20
2019-05-19T09:53:47.190Z,85.10
2019-05-19T09:56:51.702Z,82.30
2019-05-19T09:59:56.219Z,81.90
2019-05-19T10:03:00.607Z,81.10
2019-05-19T10:06:05.068Z,78.70
2019-05-19T10:09:13.610Z,80.70
2019-05-19T10:12:19.424Z,81.50
2019-05-19T10:15:23.939Z,78.90
2019-05-19T10:18:28.371Z,78.30
2019-05-19T10:21:32.811Z,79.30
2019-05-19T10:24:37.376Z,79.30
2019-05-19T10:27:41.779Z,77.40
2019-05-19T10:30:46.248Z,77.80
2019-05-19T10:33:50.685Z,79.00
2019-05-19T10:36:55.174Z,75.60
2019-05-19T10:39:59.563Z,76.50
2019-05-19T10:43:04.146Z,75.90
2019-05-19T10:46:08.491Z,73.20
2019-05-19T10:49:12.932Z,72.70
2019-05-19T10:52:17.359Z,73.20
2019-05-19T10:55:34.070Z,71.50
2019-05-19T10:58:27.944Z,72.50
2019-05-19T11:01:32.369Z,71.70
2019-05-19T11:04:36.883Z,69.20
2019-05-19T11:07:41.463Z,70.20
2019-05-19T11:10:48.033Z,68.40
2019-05-19T11:13:52.642Z,69.00
2019-05-19T11:16:59.976Z,69.00
2019-05-19T11:20:04.910Z,69.70
2019-05-19T11:23:09.359Z,70.90
2019-05-19T11:26:13.867Z,71.30
2019-05-19T11:29:18.451Z,71.00
2019-05-19T11:32:23.238Z,71.50
2019-05-19T11:35:27.674Z,70.90
2019-05-19T11:38:32.692Z,71.00
2019-05-19T11:41:37.058Z,69.10
2019-05-19T11:44:41.640Z,70.10
2019-05-19T11:47:46.080Z,69.40
2019-05-19T11:50:50.558Z,68.80
2019-05-19T11:53:54.989Z,69.30
2019-05-19T11:56:59.489Z,69.50
2019-05-19T12:00:03.933Z,70.60
2019-05-19T12:03:08.657Z,71.80
2019-05-19T12:06:13.440Z,71.80
2019-05-19T12:09:17.905Z,72.80
2019-05-19T12:12:22.583Z,74.60
2019-05-19T12:15:27.558Z,75.80
2019-05-19T12:18:32.213Z,76.20
2019-05-19T12:21:36.730Z,76.40
2019-05-19T12:24:41.326Z,77.10
2019-05-19T12:27:46.385Z,78.40
2019-05-19T12:30:51.542Z,78.40
2019-05-19T12:33:58.688Z,78.90
2019-05-19T12:37:03.420Z,80.90
2019-05-19T12:40:08.178Z,82.40
2019-05-19T12:43:13.704Z,83.00
2019-05-19T12:46:18.788Z,83.90
2019-05-19T12:49:23.853Z,84.00
2019-05-19T12:52:28.896Z,84.20
2019-05-19T12:55:33.991Z,83.90
2019-05-19T12:58:38.825Z,84.40
2019-05-19T13:01:43.565Z,84.10
2019-05-19T13:05:03.607Z,84.20
2019-05-19T13:07:54.486Z,85.10
2019-05-19T13:10:59.281Z,84.30
2019-05-19T13:14:05.982Z,86.30
2019-05-19T13:17:10.491Z,85.30
2019-05-19T13:20:14.997Z,84.70
2019-05-19T13:23:19.423Z,85.50
2019-05-19T13:26:24.456Z,85.70
2019-05-19T13:29:29.688Z,85.70
2019-05-19T13:32:34.147Z,85.60
2019-05-19T13:35:38.898Z,85.30
2019-05-19T13:38:43.396Z,85.90
2019-05-19T13:41:48.058Z,84.70
2019-05-19T13:44:53.585Z,84.50
2019-05-19T13:48:03.082Z,83.20
2019-05-19T13:51:07.725Z,82.60
2019-05-19T13:54:12.346Z,82.90
2019-05-19T13:57:16.862Z,82.70
2019-05-19T14:00:22.923Z,81.00
2019-05-19T14:03:33.033Z,79.60
2019-05-19T14:06:37.688Z,79.20
2019-05-19T14:09:45.085Z,79.10
2019-05-19T14:12:49.739Z,78.70
2019-05-19T14:15:54.157Z,78.40
2019-05-19T14:18:59.032Z,77.50
2019-05-19T14:22:03.445Z,77.30
2019-05-19T14:25:08.152Z,77.40
2019-05-19T14:28:12.573Z,76.90
2019-05-19T14:31:17.028Z,76.60
2019-05-19T14:34:21.569Z,76.60
2019-05-19T14:37:26.049Z,75.80
2019-05-19T14:40:30.484Z,75.60
2019-05-19T14:43:35.075Z,75.60
2019-05-19T14:46:39.505Z,76.20
2019-05-19T14:49:45.623Z,76.50
2019-05-19T14:52:50.132Z,76.10
2019-05-19T14:55:54.759Z,75.80
2019-05-19T14:58:59.343Z,76.10
2019-05-19T15:02:03.742Z,75.00
2019-05-19T15:05:08.301Z,74.50
2019-05-19T15:08:13.142Z,75.10
2019-05-19T15:11:18.685Z,74.70
2019-05-19T15:14:23.423Z,73.90
2019-05-19T15:17:27.982Z,73.90
2019-05-19T15:20:32.437Z,74.40
2019-05-19T15:23:38.088Z,74.00
2019-05-19T15:26:42.658Z,74.10
2019-05-19T15:29:47.167Z,74.40
2019-05-19T15:32:51.875Z,75.00
2019-05-19T15:35:56.554Z,75.50
2019-05-19T15:39:01.346Z,75.90
2019-05-19T15:42:05.741Z,75.70
2019-05-19T15:45:11.294Z,76.10
2019-05-19T15:48:17.760Z,76.30
2019-05-19T15:51:29.184Z,77.10
2019-05-19T15:54:30.057Z,77.60
2019-05-19T15:57:34.492Z,77.80
2019-05-19T16:00:39.937Z,78.20
2019-05-19T16:03:44.431Z,79.40
2019-05-19T16:06:48.856Z,79.30
2019-05-19T16:09:53.315Z,78.10
2019-05-19T16:12:58.028Z,77.70
2019-05-19T16:16:05.871Z,79.10
2019-05-19T16:19:10.479Z,79.70
2019-05-19T16:22:14.965Z,79.70
2019-05-19T16:25:19.419Z,80.10
2019-05-19T16:28:30.659Z,80.20
2019-05-19T16:31:30.095Z,80.40
2019-05-19T16:34:35.822Z,80.60
2019-05-19T16:37:41.666Z,81.20
2019-05-19T16:40:46.207Z,81.90
2019-05-19T16:43:50.706Z,82.50
2019-05-19T16:46:55.621Z,83.30
2019-05-19T16:50:00.483Z,83.90
2019-05-19T16:53:05.304Z,84.30
2019-05-19T16:56:09.723Z,84.90
2019-05-19T16:59:14.775Z,85.80
2019-05-19T17:02:22.344Z,86.50
2019-05-19T17:05:27.101Z,86.60
2019-05-19T17:08:31.687Z,87.10
2019-05-19T17:11:39.511Z,87.00
2019-05-19T17:14:48.919Z,86.90
2019-05-19T17:17:53.005Z,87.20
2019-05-19T17:20:58.094Z,86.80
2019-05-19T17:24:06.364Z,87.20
2019-05-19T17:27:12.255Z,87.10
2019-05-19T17:30:17.697Z,86.80
2019-05-19T17:33:22.552Z,86.80
2019-05-19T17:36:27.569Z,86.80
2019-05-19T17:39:32.212Z,87.20
2019-05-19T17:42:39.131Z,87.10
2019-05-19T17:45:43.920Z,86.80
2019-05-19T17:48:48.842Z,86.50
2019-05-19T17:51:53.648Z,86.60
2019-05-19T17:55:01.433Z,86.50
2019-05-19T17:58:05.973Z,86.70
2019-05-19T18:01:10.633Z,87.30
2019-05-19T18:04:15.390Z,87.50
2019-05-19T18:07:21.488Z,87.30
2019-05-19T18:10:26.861Z,87.50
2019-05-19T18:13:31.579Z,87.70
2019-05-19T18:16:36.084Z,88.10
2019-05-19T18:19:44.167Z,88.90
2019-05-19T18:22:48.741Z,88.40
2019-05-19T18:25:53.377Z,88.70
2019-05-19T18:28:57.955Z,88.80
2019-05-19T18:32:02.531Z,89.10
2019-05-19T18:35:07.046Z,89.20
2019-05-19T18:38:11.542Z,89.30
2019-05-19T18:41:20.347Z,89.30
2019-05-19T18:44:25.509Z,89.60
2019-05-19T18:47:30.014Z,89.50
2019-05-19T18:50:34.731Z,90.20
2019-05-19T18:53:41.914Z,90.30
2019-05-19T18:56:46.409Z,90.50
2019-05-19T18:59:50.968Z,90.40
2019-05-19T19:02:55.840Z,90.30
2019-05-19T19:06:00.299Z,90.40
2019-05-19T19:09:06.982Z,90.40
2019-05-19T19:12:11.624Z,90.60
2019-05-19T19:15:16.486Z,91.10
2019-05-19T19:18:22.427Z,91.10
2019-05-19T19:21:27.698Z,90.90
2019-05-19T19:24:32.388Z,90.90
2019-05-19T19:27:39.805Z,90.80
2019-05-19T19:30:44.732Z,90.70
2019-05-19T19:33:50.477Z,90.80
2019-05-19T19:36:55.676Z,90.70
2019-05-19T19:40:01.022Z,90.80
2019-05-19T19:43:06.015Z,90.90
2019-05-19T19:46:10.973Z,90.90
2019-05-19T19:49:15.499Z,91.10
2019-05-19T19:52:28.143Z,91.00
2019-05-19T19:55:33.899Z,91.10
2019-05-19T19:58:39.312Z,91.20
2019-05-19T20:01:46.962Z,91.10
2019-05-19T20:04:52.222Z,91.00
2019-05-19T20:07:57.427Z,91.10
2019-05-19T20:11:02.679Z,91.00
2019-05-19T20:14:07.741Z,90.90
2019-05-19T20:17:12.972Z,91.00
2019-05-19T20:20:17.700Z,91.00
2019-05-19T20:23:23.523Z,91.10
2019-05-19T20:26:28.515Z,91.10
2019-05-19T20:29:33.424Z,91.50
2019-05-19T20:32:38.624Z,91.10
2019-05-19T20:35:44.157Z,91.20
2019-05-19T20:38:48.894Z,91.20
2019-05-19T20:41:53.329Z,91.20
2019-05-19T20:44:59.935Z,91.20
2019-05-19T20:48:04.844Z,91.40
2019-05-19T20:51:09.284Z,91.10
2019-05-19T20:54:14.154Z,91.20
2019-05-19T20:57:18.616Z,91.30
2019-05-19T21:00:23.908Z,91.20
2019-05-19T21:03:29.359Z,91.20
2019-05-19T21:06:34.169Z,91.30
2019-05-19T21:09:38.750Z,91.30
2019-05-19T21:12:43.427Z,91.30
2019-05-19T21:15:48.236Z,91.20
2019-05-19T21:18:52.621Z,91.30
2019-05-19T21:21:57.482Z,91.30
2019-05-19T21:25:01.935Z,91.30
2019-05-19T21:28:06.397Z,91.30
2019-05-19T21:31:10.841Z,91.40
2019-05-19T21:34:15.193Z,91.60
2019-05-19T21:37:22.307Z,91.60
2019-05-19T21:40:26.685Z,91.50
2019-05-19T21:43:31.128Z,91.60
2019-05-19T21:46:36.245Z,91.60
2019-05-19T21:49:50.454Z,91.80
2019-05-19T21:52:54.766Z,91.90
2019-05-19T21:55:59.183Z,91.90
2019-05-19T21:59:03.543Z,92.10
2019-05-19T22:02:08.160Z,92.30
2019-05-19T22:05:13.112Z,92.30
2019-05-19T22:08:18.863Z,92.40
2019-05-19T22:11:23.484Z,92.30
2019-05-19T22:14:28.326Z,92.50
2019-05-19T22:17:32.969Z,92.50
2019-05-19T22:20:37.426Z,92.60
2019-05-19T22:23:42.517Z,92.90
2019-05-19T22:26:47.160Z,92.80
2019-05-19T22:29:51.611Z,92.80
2019-05-19T22:32:56.147Z,93.10
2019-05-19T22:36:00.828Z,93.00
2019-05-19T22:39:07.692Z,92.80
2019-05-19T22:42:12.071Z,92.80
2019-05-19T22:45:16.807Z,92.50
2019-05-19T22:48:22.659Z,92.90
2019-05-19T22:51:27.150Z,93.00
2019-05-19T22:54:31.460Z,93.40
2019-05-19T22:57:37.098Z,93.70
2019-05-19T23:00:41.429Z,94.20
2019-05-19T23:03:45.797Z,93.90
2019-05-19T23:06:50.287Z,93.70
2019-05-19T23:09:54.643Z,94.10
2019-05-19T23:12:58.952Z,94.00
2019-05-19T23:16:03.280Z,93.90
2019-05-19T23:19:09.270Z,93.80
2019-05-19T23:22:13.695Z,93.60
2019-05-19T23:25:18.949Z,93.70
2019-05-19T23:28:23.919Z,93.50
2019-05-19T23:31:28.255Z,93.80
2019-05-19T23:34:32.889Z,94.20
2019-05-19T23:37:37.389Z,94.20
2019-05-19T23:40:42.553Z,94.20
2019-05-19T23:43:47.622Z,94.20
2019-05-19T23:46:51.970Z,94.30
2019-05-19T23:49:57.037Z,94.30
2019-05-19T23:53:01.528Z,94.40
2019-05-19T23:56:06.788Z,94.40
2019-05-19T23:59:11.184Z,94.40
